Time;durP1;ratioP1;P1;durP2;ratioP2;P2;SDS_P1;SDS_P2;PMS_P1;PMS_P2;Temp;Humidity;BMP_temperature;BMP_pressure;BME280_temperature;BME280_humidity;BME280_pressure;Samples;Min_cycle;Max_cycle;Signal;HPM_P1;HPM_P2
2022/08/21 00:00:28;;;;;;;11.32;5.97;;;22.20;99.90;;;;;;5031363;28;20030;-69
2022/08/21 00:03:01;;;;;;;8.40;5.68;;;22.20;99.90;;;;;;5037295;28;20032;-69
2022/08/21 00:05:27;;;;;;;10.82;7.40;;;22.20;99.90;;;;;;5050596;28;20048;-68
2022/08/21 00:07:54;;;;;;;9.95;6.38;;;22.10;99.90;;;;;;5042568;28;20116;-69
2022/08/21 00:10:21;;;;;;;7.80;5.50;;;22.10;99.90;;;;;;5049766;28;20079;-69
2022/08/21 00:12:47;;;;;;;7.90;5.82;;;22.10;99.90;;;;;;5039261;28;20037;-68
2022/08/21 00:15:18;;;;;;;8.88;5.78;;;22.10;99.90;;;;;;5032837;28;20480;-68
2022/08/21 00:17:44;;;;;;;11.20;6.15;;;22.10;99.90;;;;;;5041577;28;20036;-68
2022/08/21 00:20:12;;;;;;;9.90;5.97;;;22.10;99.90;;;;;;5065329;28;20025;-68
2022/08/21 00:22:38;;;;;;;8.18;6.72;;;22.00;99.90;;;;;;5048617;28;20085;-69
2022/08/21 00:25:06;;;;;;;7.38;5.53;;;22.00;99.90;;;;;;5047364;28;20032;-68
2022/08/21 00:27:33;;;;;;;9.35;5.93;;;22.00;99.90;;;;;;5042296;28;20045;-68
2022/08/21 00:29:59;;;;;;;7.60;5.40;;;22.00;99.90;;;;;;5058301;28;20078;-68
2022/08/21 00:32:27;;;;;;;8.38;5.55;;;22.00;99.90;;;;;;5043717;28;20029;-69
2022/08/21 00:34:54;;;;;;;6.75;5.10;;;22.00;99.90;;;;;;5045704;28;20112;-69
2022/08/21 00:37:21;;;;;;;7.47;5.65;;;21.90;99.90;;;;;;5046398;28;20021;-69
2022/08/21 00:39:48;;;;;;;7.45;5.20;;;21.90;99.90;;;;;;5042927;28;20033;-68
2022/08/21 00:42:16;;;;;;;7.03;5.47;;;21.90;99.90;;;;;;5018162;28;20034;-69
2022/08/21 00:44:46;;;;;;;8.30;5.47;;;21.90;99.90;;;;;;5053810;28;20114;-69
2022/08/21 00:47:13;;;;;;;8.75;5.75;;;21.80;99.90;;;;;;5033465;28;20030;-69
2022/08/21 00:49:39;;;;;;;8.45;5.00;;;21.80;99.90;;;;;;5034454;28;20417;-69
2022/08/21 00:52:08;;;;;;;7.28;5.22;;;21.80;99.90;;;;;;5033784;28;20037;-68
2022/08/21 00:54:35;;;;;;;7.38;5.55;;;21.80;99.90;;;;;;5026111;28;20346;-71
2022/08/21 00:57:05;;;;;;;8.32;5.85;;;21.80;99.90;;;;;;5014503;28;20022;-70
2022/08/21 00:59:35;;;;;;;11.23;6.25;;;21.80;99.90;;;;;;5042506;28;20554;-69
2022/08/21 01:02:03;;;;;;;7.72;5.75;;;21.70;99.90;;;;;;5033799;28;20055;-68
2022/08/21 01:04:29;;;;;;;6.65;5.75;;;21.70;99.90;;;;;;5038372;28;20115;-68
2022/08/21 01:06:54;;;;;;;10.68;5.45;;;21.70;99.90;;;;;;5047651;28;20509;-68
2022/08/21 01:09:20;;;;;;;9.77;5.75;;;21.70;99.90;;;;;;5041867;28;20033;-69
2022/08/21 01:11:46;;;;;;;9.02;5.97;;;21.70;99.90;;;;;;5030333;28;20517;-69
2022/08/21 01:14:13;;;;;;;9.48;5.25;;;21.60;99.90;;;;;;5049890;28;20488;-69
2022/08/21 01:16:43;;;;;;;8.50;6.07;;;21.60;99.90;;;;;;5035211;28;20061;-69
2022/08/21 01:19:09;;;;;;;8.10;5.50;;;21.60;99.90;;;;;;5044656;28;20029;-69
2022/08/21 01:21:35;;;;;;;6.55;4.80;;;21.50;99.90;;;;;;5032988;28;20033;-69
2022/08/21 01:24:02;;;;;;;7.47;5.43;;;21.50;99.90;;;;;;5043376;28;20445;-69
2022/08/21 01:26:30;;;;;;;8.35;5.55;;;21.50;99.90;;;;;;5015337;28;20060;-69
2022/08/21 01:29:01;;;;;;;7.90;5.50;;;21.40;99.90;;;;;;5044816;28;20033;-68
2022/08/21 01:31:28;;;;;;;6.13;5.05;;;21.40;99.90;;;;;;5032767;28;20424;-68
2022/08/21 01:33:55;;;;;;;6.47;5.20;;;21.40;99.90;;;;;;5031494;28;20025;-70
2022/08/21 01:36:21;;;;;;;7.28;5.45;;;21.40;99.90;;;;;;5032874;28;20124;-67
2022/08/21 01:38:47;;;;;;;8.55;5.60;;;21.30;99.90;;;;;;5031799;28;20032;-68
2022/08/21 01:41:14;;;;;;;7.10;5.47;;;21.30;99.90;;;;;;5032662;28;20021;-68
2022/08/21 01:43:41;;;;;;;7.20;5.25;;;21.30;99.90;;;;;;5026800;28;20113;-68
2022/08/21 01:46:07;;;;;;;6.45;4.88;;;21.30;99.90;;;;;;5044020;28;20053;-68
2022/08/21 01:48:33;;;;;;;7.70;5.10;;;21.30;99.90;;;;;;5031716;28;20421;-69
2022/08/21 01:50:59;;;;;;;6.53;4.97;;;21.30;99.90;;;;;;5041558;28;20030;-69
2022/08/21 01:53:25;;;;;;;9.50;5.53;;;21.30;99.90;;;;;;5033906;28;20389;-68
2022/08/21 01:55:50;;;;;;;11.85;5.40;;;21.30;99.90;;;;;;5031593;28;20477;-69
2022/08/21 01:58:16;;;;;;;10.27;5.18;;;21.20;99.90;;;;;;5013794;28;20036;-69
2022/08/21 02:00:42;;;;;;;9.82;5.25;;;21.20;99.90;;;;;;5032637;28;20448;-69
2022/08/21 02:03:09;;;;;;;8.68;4.30;;;21.10;99.90;;;;;;5039192;28;20029;-69
2022/08/21 02:05:34;;;;;;;5.47;4.35;;;21.10;99.90;;;;;;5033576;28;20530;-69
2022/08/21 02:08:01;;;;;;;5.80;3.90;;;21.10;99.90;;;;;;5041455;28;20029;-69
2022/08/21 02:10:30;;;;;;;7.68;4.63;;;21.10;99.90;;;;;;5044706;28;20449;-69
2022/08/21 02:12:57;;;;;;;9.98;4.80;;;21.10;99.90;;;;;;5037546;28;20519;-68
2022/08/21 02:15:23;;;;;;;8.23;4.50;;;21.10;99.90;;;;;;5046767;28;20026;-68
2022/08/21 02:17:52;;;;;;;6.15;4.13;;;21.00;99.90;;;;;;5037008;28;20112;-68
2022/08/21 02:20:29;;;;;;;5.60;4.60;;;21.00;99.90;;;;;;5043321;28;20134;-68
2022/08/21 02:22:55;;;;;;;5.40;4.05;;;21.00;99.90;;;;;;5032448;28;20029;-68
2022/08/21 02:25:23;;;;;;;9.18;3.92;;;21.00;99.90;;;;;;5031700;28;20037;-68
2022/08/21 02:27:49;;;;;;;9.70;4.05;;;21.00;99.90;;;;;;5031880;28;20061;-68
2022/08/21 02:30:19;;;;;;;5.35;3.60;;;20.90;99.90;;;;;;5029597;28;20033;-69
2022/08/21 02:32:45;;;;;;;6.70;3.92;;;20.90;99.90;;;;;;5036670;28;20051;-69
2022/08/21 02:35:11;;;;;;;5.50;3.50;;;20.80;99.90;;;;;;5028347;28;20468;-69
2022/08/21 02:38:05;;;;;;;5.85;3.95;;;20.80;99.90;;;;;;5016810;28;20476;-69
2022/08/21 02:40:34;;;;;;;4.82;3.97;;;20.70;99.90;;;;;;5028935;28;20041;-68
2022/08/21 02:43:02;;;;;;;4.60;3.65;;;20.70;99.90;;;;;;5037211;28;20035;-69
2022/08/21 02:45:29;;;;;;;9.07;3.92;;;20.70;99.90;;;;;;5042353;28;20101;-68
2022/08/21 02:48:02;;;;;;;36.13;4.88;;;20.70;99.90;;;;;;5030185;28;20025;-69
2022/08/21 02:50:32;;;;;;;4.43;3.35;;;20.60;99.90;;;;;;5012102;28;20030;-68
2022/08/21 02:52:58;;;;;;;6.22;4.15;;;20.60;99.90;;;;;;5027365;28;20136;-69
2022/08/21 02:55:27;;;;;;;5.22;3.55;;;20.50;99.90;;;;;;5031695;28;20247;-69
2022/08/21 02:57:54;;;;;;;6.82;3.78;;;20.50;99.90;;;;;;5031056;28;20025;-69
2022/08/21 03:00:24;;;;;;;6.22;3.22;;;20.50;99.90;;;;;;5030272;28;20045;-68
2022/08/21 03:02:50;;;;;;;5.10;3.85;;;20.50;99.90;;;;;;5031057;28;20037;-69
2022/08/21 03:05:16;;;;;;;10.90;3.70;;;20.40;99.90;;;;;;5033193;28;20033;-68
2022/08/21 03:07:44;;;;;;;4.38;3.10;;;20.40;99.90;;;;;;5035411;28;20047;-69
2022/08/21 03:10:09;;;;;;;5.35;3.90;;;20.40;99.90;;;;;;5041073;28;20026;-69
2022/08/21 03:12:35;;;;;;;5.55;4.10;;;20.30;99.90;;;;;;5034019;28;20036;-69
2022/08/21 03:15:07;;;;;;;5.75;3.58;;;20.30;99.90;;;;;;5041426;28;20544;-68
2022/08/21 03:17:33;;;;;;;4.35;2.97;;;20.20;99.90;;;;;;5019490;28;20033;-69
2022/08/21 03:20:00;;;;;;;6.20;3.30;;;20.20;99.90;;;;;;5046689;28;20022;-70
2022/08/21 03:22:26;;;;;;;6.00;3.30;;;20.20;99.90;;;;;;5030714;28;20040;-69
2022/08/21 03:24:53;;;;;;;8.25;3.42;;;20.30;99.90;;;;;;5040250;28;20022;-69
2022/08/21 03:27:19;;;;;;;5.30;3.17;;;20.30;99.90;;;;;;5038012;28;20173;-69
2022/08/21 03:29:44;;;;;;;7.25;3.85;;;20.30;99.90;;;;;;5047403;28;20045;-69
2022/08/21 03:32:11;;;;;;;5.20;2.97;;;20.40;99.90;;;;;;5030385;28;20154;-70
2022/08/21 03:34:38;;;;;;;6.25;3.30;;;20.30;99.90;;;;;;5012809;28;20057;-70
2022/08/21 03:37:07;;;;;;;5.65;3.58;;;20.30;99.80;;;;;;5013374;28;20030;-70
2022/08/21 03:39:34;;;;;;;4.80;3.15;;;20.20;99.70;;;;;;5035326;28;20057;-70
2022/08/21 03:42:00;;;;;;;8.07;3.53;;;20.20;99.90;;;;;;5030458;28;20026;-70
2022/08/21 03:44:28;;;;;;;6.68;3.45;;;20.20;99.90;;;;;;5011710;28;20117;-70
2022/08/21 03:46:55;;;;;;;4.10;2.95;;;20.20;99.80;;;;;;5030902;28;20046;-70
2022/08/21 03:49:21;;;;;;;6.40;3.40;;;20.20;99.70;;;;;;5035226;28;20141;-70
2022/08/21 03:51:46;;;;;;;7.70;3.60;;;20.20;99.60;;;;;;5017226;28;20507;-70
2022/08/21 03:54:12;;;;;;;5.00;2.97;;;20.20;99.70;;;;;;5033742;28;20029;-70
2022/08/21 03:56:37;;;;;;;6.20;3.10;;;20.20;99.50;;;;;;5034501;28;20465;-70
2022/08/21 03:59:03;;;;;;;5.38;3.00;;;20.10;99.70;;;;;;5032634;28;20468;-70
2022/08/21 04:01:29;;;;;;;7.28;3.22;;;20.10;99.60;;;;;;5034635;28;20029;-69
2022/08/21 04:03:55;;;;;;;7.40;3.33;;;20.10;99.60;;;;;;5031471;28;20017;-70
2022/08/21 04:06:20;;;;;;;5.22;3.20;;;20.00;99.50;;;;;;5033897;28;20053;-69
2022/08/21 04:08:46;;;;;;;5.88;3.42;;;20.00;99.40;;;;;;5014911;28;20503;-70
2022/08/21 04:11:13;;;;;;;7.10;3.47;;;19.90;99.40;;;;;;5033898;28;20087;-70
2022/08/21 04:13:40;;;;;;;8.82;3.38;;;19.90;99.50;;;;;;5033851;28;20622;-70
2022/08/21 04:16:06;;;;;;;6.47;3.55;;;19.80;99.60;;;;;;5034191;28;20041;-69
2022/08/21 04:18:32;;;;;;;5.90;3.20;;;19.90;99.60;;;;;;5035767;28;20033;-69
2022/08/21 04:20:59;;;;;;;6.32;3.80;;;19.90;99.40;;;;;;5030077;28;20073;-70
2022/08/21 04:23:25;;;;;;;6.97;3.92;;;19.90;99.60;;;;;;5035715;28;20025;-69
2022/08/21 04:25:55;;;;;;;6.95;3.40;;;19.90;99.50;;;;;;5047943;28;20518;-69
2022/08/21 04:28:22;;;;;;;7.82;3.50;;;19.90;99.50;;;;;;5032122;28;20623;-69
2022/08/21 04:30:48;;;;;;;9.43;3.35;;;19.90;99.50;;;;;;5041490;28;20053;-69
2022/08/21 04:33:15;;;;;;;7.47;3.90;;;19.90;99.40;;;;;;5041661;28;20037;-70
2022/08/21 04:35:41;;;;;;;8.25;3.83;;;19.90;99.30;;;;;;5049881;28;20033;-70
2022/08/21 04:38:07;;;;;;;11.05;3.85;;;20.00;99.30;;;;;;5040873;28;20025;-70
2022/08/21 04:40:33;;;;;;;6.97;2.97;;;19.90;99.10;;;;;;5033747;28;20036;-70
2022/08/21 04:43:03;;;;;;;5.82;3.25;;;19.90;99.30;;;;;;5040197;28;20025;-70
2022/08/21 04:45:33;;;;;;;8.30;3.00;;;19.90;99.30;;;;;;5017738;28;20072;-69
2022/08/21 04:48:01;;;;;;;6.40;3.67;;;20.00;99.40;;;;;;5052010;28;20025;-69
2022/08/21 04:50:42;;;;;;;6.47;3.50;;;19.90;99.20;;;;;;5033419;28;20095;-69
2022/08/21 04:53:38;;;;;;;4.53;2.92;;;19.90;99.20;;;;;;5032436;28;20033;-70
2022/08/21 04:56:20;;;;;;;6.40;3.08;;;20.00;99.20;;;;;;5011691;28;20124;-70
2022/08/21 04:58:49;;;;;;;6.93;3.00;;;19.90;99.30;;;;;;5039992;28;20033;-69
2022/08/21 05:01:24;;;;;;;5.38;2.75;;;20.00;99.40;;;;;;5030744;28;20060;-69
2022/08/21 05:03:55;;;;;;;6.65;2.92;;;20.00;99.10;;;;;;5039856;28;20064;-69
2022/08/21 05:06:21;;;;;;;6.30;3.13;;;20.00;99.20;;;;;;5039430;28;20048;-69
2022/08/21 05:08:51;;;;;;;14.40;2.92;;;20.00;99.20;;;;;;5032981;28;20032;-69
2022/08/21 05:11:17;;;;;;;5.15;2.95;;;20.00;99.10;;;;;;5032003;28;20088;-69
2022/08/21 05:13:45;;;;;;;4.32;2.90;;;20.00;99.20;;;;;;5031970;28;20025;-69
2022/08/21 05:16:11;;;;;;;7.53;3.10;;;20.00;99.00;;;;;;5032908;28;20057;-70
2022/08/21 05:18:36;;;;;;;5.45;2.78;;;20.00;99.00;;;;;;5031555;28;20582;-70
2022/08/21 05:21:04;;;;;;;5.85;2.97;;;20.00;99.10;;;;;;5033036;28;20025;-70
2022/08/21 05:23:29;;;;;;;9.10;3.20;;;20.00;99.00;;;;;;5031994;28;20025;-70
2022/08/21 05:25:55;;;;;;;7.55;2.60;;;20.00;99.00;;;;;;5032646;28;20476;-69
2022/08/21 05:28:21;;;;;;;6.45;2.70;;;20.10;99.20;;;;;;5034043;28;20564;-69
2022/08/21 05:30:47;;;;;;;6.80;3.35;;;20.10;99.10;;;;;;5049530;28;20025;-70
2022/08/21 05:33:13;;;;;;;6.40;2.92;;;20.20;98.90;;;;;;5040271;28;20032;-70
2022/08/21 05:35:39;;;;;;;7.53;3.00;;;20.10;98.60;;;;;;5033442;28;20497;-70
2022/08/21 05:38:05;;;;;;;7.07;2.80;;;20.10;98.70;;;;;;5039220;28;20033;-70
2022/08/21 05:40:32;;;;;;;3.67;2.05;;;20.10;98.60;;;;;;5053096;28;20029;-69
2022/08/21 05:42:58;;;;;;;6.18;2.97;;;20.10;98.70;;;;;;5038069;28;20083;-70
2022/08/21 05:45:27;;;;;;;7.13;3.30;;;20.10;98.70;;;;;;5033647;28;20086;-70
2022/08/21 05:47:53;;;;;;;3.63;2.30;;;20.10;98.70;;;;;;5037232;28;20021;-70
2022/08/21 05:50:19;;;;;;;4.97;2.63;;;20.10;98.50;;;;;;5052513;28;20033;-70
2022/08/21 05:52:44;;;;;;;6.30;3.13;;;20.10;98.50;;;;;;5038712;28;20033;-69
2022/08/21 05:55:10;;;;;;;5.43;2.60;;;20.10;98.40;;;;;;5037880;28;20040;-69
2022/08/21 05:57:36;;;;;;;7.00;3.00;;;20.10;98.50;;;;;;5039075;28;20025;-70
2022/08/21 06:00:03;;;;;;;4.55;2.40;;;20.10;98.50;;;;;;5032374;28;20100;-73
2022/08/21 06:02:28;;;;;;;6.72;2.67;;;20.20;98.40;;;;;;5034063;28;20025;-68
2022/08/21 06:04:56;;;;;;;15.23;3.88;;;20.20;98.40;;;;;;5043116;28;20028;-69
2022/08/21 06:07:22;;;;;;;5.88;2.60;;;20.20;98.40;;;;;;5019706;28;20097;-69
2022/08/21 06:09:48;;;;;;;4.95;2.80;;;20.10;98.40;;;;;;5013136;28;20022;-69
2022/08/21 06:12:14;;;;;;;7.35;2.63;;;20.20;98.30;;;;;;5015237;28;20047;-67
2022/08/21 06:14:41;;;;;;;4.22;2.20;;;20.20;98.30;;;;;;5025696;28;20079;-68
2022/08/21 06:17:09;;;;;;;6.75;2.38;;;20.20;98.10;;;;;;5016623;28;20079;-69
2022/08/21 06:19:35;;;;;;;4.70;2.33;;;20.20;98.20;;;;;;5026430;28;20504;-69
2022/08/21 06:22:02;;;;;;;8.73;2.72;;;20.30;98.20;;;;;;5021701;28;20513;-69
2022/08/21 06:24:28;;;;;;;5.07;2.33;;;20.40;98.30;;;;;;4992950;28;20112;-68
2022/08/21 06:26:54;;;;;;;6.32;2.25;;;20.40;98.20;;;;;;5015367;28;20164;-68
2022/08/21 06:29:20;;;;;;;5.28;2.58;;;20.50;97.80;;;;;;5010976;28;20033;-68
2022/08/21 06:31:48;;;;;;;5.78;2.70;;;20.50;98.00;;;;;;5012844;28;20493;-68
2022/08/21 06:34:14;;;;;;;5.78;2.95;;;20.50;98.00;;;;;;5011303;28;20030;-68
2022/08/21 06:36:40;;;;;;;6.15;3.00;;;20.60;97.80;;;;;;5012172;28;20104;-68
2022/08/21 06:39:06;;;;;;;20.80;11.95;;;20.70;97.90;;;;;;5027885;28;20025;-69
2022/08/21 06:41:32;;;;;;;11.70;5.50;;;20.70;97.70;;;;;;5022841;28;20038;-69
2022/08/21 06:43:58;;;;;;;10.00;4.15;;;20.70;97.80;;;;;;5013460;28;20060;-68
2022/08/21 06:46:26;;;;;;;9.18;3.85;;;20.80;97.70;;;;;;5008768;28;20429;-69
2022/08/21 06:48:51;;;;;;;7.30;3.28;;;20.90;97.60;;;;;;5016962;28;20080;-69
2022/08/21 06:51:17;;;;;;;10.27;2.95;;;20.90;97.40;;;;;;5022709;28;20029;-68
2022/08/21 06:53:43;;;;;;;5.10;2.50;;;20.90;97.30;;;;;;5001933;28;20038;-68
2022/08/21 06:56:09;;;;;;;7.13;3.95;;;21.00;97.10;;;;;;5012977;28;20037;-68
2022/08/21 06:58:35;;;;;;;7.93;3.10;;;21.00;97.20;;;;;;5026693;28;20033;-69
2022/08/21 07:01:00;;;;;;;6.80;3.08;;;21.00;96.90;;;;;;5016236;28;20080;-69
2022/08/21 07:03:30;;;;;;;6.70;3.20;;;21.10;97.00;;;;;;5019713;28;20140;-68
2022/08/21 07:05:58;;;;;;;6.18;3.00;;;21.10;97.00;;;;;;5031105;28;20065;-69
2022/08/21 07:08:26;;;;;;;7.63;3.00;;;21.10;97.00;;;;;;5046024;28;20381;-68
2022/08/21 07:10:54;;;;;;;7.70;3.55;;;21.20;97.00;;;;;;5034740;28;20056;-68
2022/08/21 07:13:20;;;;;;;6.95;2.95;;;21.30;96.70;;;;;;5032119;28;20489;-68
2022/08/21 07:15:45;;;;;;;6.07;3.22;;;21.40;96.60;;;;;;5032297;28;20124;-68
2022/08/21 07:18:12;;;;;;;5.60;2.15;;;21.40;96.20;;;;;;5029513;28;20022;-68
2022/08/21 07:20:38;;;;;;;5.40;2.47;;;21.40;96.20;;;;;;5042263;28;20506;-68
2022/08/21 07:23:08;;;;;;;8.98;2.88;;;21.40;96.00;;;;;;5049741;28;20040;-69
2022/08/21 07:25:34;;;;;;;7.45;2.70;;;21.40;96.00;;;;;;5039557;28;20420;-69
2022/08/21 07:28:01;;;;;;;8.00;2.63;;;21.40;95.60;;;;;;5041610;28;20040;-69
2022/08/21 07:30:27;;;;;;;6.78;2.47;;;21.50;95.90;;;;;;5016461;28;20049;-70
2022/08/21 07:32:54;;;;;;;5.85;2.83;;;21.50;95.70;;;;;;5046732;28;20052;-69
2022/08/21 07:35:20;;;;;;;6.97;2.38;;;21.50;95.60;;;;;;5039131;28;20028;-69
2022/08/21 07:37:47;;;;;;;5.82;2.90;;;21.60;95.80;;;;;;5046277;28;20024;-69
2022/08/21 07:40:13;;;;;;;5.13;2.30;;;21.60;95.40;;;;;;5046721;28;20480;-69
2022/08/21 07:42:44;;;;;;;6.80;2.72;;;21.70;95.20;;;;;;5046591;28;20036;-70
2022/08/21 07:45:11;;;;;;;4.95;2.33;;;21.70;95.10;;;;;;5047913;28;20075;-70
2022/08/21 07:47:38;;;;;;;5.50;2.22;;;21.80;95.20;;;;;;5044276;28;20036;-70
2022/08/21 07:50:04;;;;;;;6.00;2.20;;;21.80;95.00;;;;;;5017189;28;20025;-69
2022/08/21 07:52:30;;;;;;;5.30;2.33;;;21.90;94.60;;;;;;5033614;28;20041;-69
2022/08/21 07:54:55;;;;;;;4.85;2.47;;;21.90;94.50;;;;;;5032795;28;20017;-69
2022/08/21 07:57:21;;;;;;;4.43;2.40;;;21.90;93.80;;;;;;5032915;28;20057;-68
2022/08/21 07:59:47;;;;;;;5.80;2.40;;;22.00;94.00;;;;;;5040984;28;20141;-67
2022/08/21 08:02:25;;;;;;;3.17;2.03;;;22.00;93.80;;;;;;5032307;28;20025;-67
2022/08/21 08:04:51;;;;;;;7.78;1.98;;;22.10;93.70;;;;;;5041201;28;20603;-71
2022/08/21 08:07:17;;;;;;;3.22;1.75;;;22.20;93.80;;;;;;5017175;28;20089;-70
2022/08/21 08:09:43;;;;;;;7.35;1.92;;;22.30;93.60;;;;;;5020404;28;20029;-69
2022/08/21 08:12:10;;;;;;;4.55;2.30;;;22.30;92.90;;;;;;5018997;28;20087;-70
2022/08/21 08:14:36;;;;;;;5.20;2.13;;;22.40;93.10;;;;;;5014798;28;20022;-69
2022/08/21 08:17:02;;;;;;;2.80;1.70;;;22.50;93.00;;;;;;5013505;28;20564;-70
2022/08/21 08:19:28;;;;;;;4.30;1.77;;;22.50;92.50;;;;;;5021037;28;20105;-70
2022/08/21 08:21:54;;;;;;;4.75;2.00;;;22.60;92.10;;;;;;5005517;28;20033;-71
2022/08/21 08:24:20;;;;;;;4.32;1.90;;;22.60;92.00;;;;;;5020912;28;20421;-69
2022/08/21 08:26:46;;;;;;;6.25;1.70;;;22.70;91.60;;;;;;5019069;28;20030;-70
2022/08/21 08:29:12;;;;;;;4.93;2.33;;;22.70;90.80;;;;;;5019958;28;20022;-71
2022/08/21 08:31:38;;;;;;;5.60;2.33;;;22.70;91.10;;;;;;5014812;28;20122;-70
2022/08/21 08:34:04;;;;;;;5.18;2.03;;;22.70;91.30;;;;;;5023944;28;20032;-70
2022/08/21 08:36:37;;;;;;;5.25;2.17;;;22.70;91.20;;;;;;5016857;28;20041;-70
2022/08/21 08:39:04;;;;;;;4.73;1.87;;;22.80;91.60;;;;;;5009095;28;20385;-70
2022/08/21 08:41:32;;;;;;;4.03;1.80;;;22.90;90.70;;;;;;5017534;28;20367;-70
2022/08/21 08:44:02;;;;;;;6.68;2.00;;;22.90;90.30;;;;;;5012627;28;20021;-69
2022/08/21 08:46:36;;;;;;;6.75;2.00;;;22.90;90.50;;;;;;5022071;28;20033;-69
2022/08/21 08:49:23;;;;;;;4.85;1.80;;;22.90;89.30;;;;;;4996451;28;20042;-67
2022/08/21 08:51:55;;;;;;;4.38;1.55;;;22.80;87.70;;;;;;5013314;28;20042;-67
2022/08/21 08:54:31;;;;;;;4.32;2.35;;;22.80;88.90;;;;;;5014113;28;20034;-68
2022/08/21 08:56:59;;;;;;;6.78;2.45;;;22.80;89.30;;;;;;5013381;28;20044;-68
2022/08/21 08:59:47;;;;;;;5.45;2.50;;;22.80;87.90;;;;;;5013766;28;20022;-67
2022/08/21 09:02:15;;;;;;;3.92;2.22;;;22.80;88.40;;;;;;5000620;28;20022;-67
2022/08/21 09:04:42;;;;;;;4.07;1.70;;;22.80;87.90;;;;;;5019831;28;20169;-68
2022/08/21 09:07:24;;;;;;;3.08;1.95;;;22.90;88.80;;;;;;5031846;28;20136;-68
2022/08/21 09:10:18;;;;;;;3.38;1.88;;;23.10;88.90;;;;;;5032578;28;20033;-68
2022/08/21 09:13:13;;;;;;;3.67;1.73;;;23.10;87.60;;;;;;5023235;28;20108;-68
2022/08/21 09:15:59;;;;;;;6.05;2.05;;;23.10;86.70;;;;;;5029170;28;20053;-68
2022/08/21 09:18:38;;;;;;;4.18;1.80;;;23.10;87.20;;;;;;5027704;28;20041;-68
2022/08/21 09:21:22;;;;;;;5.20;1.85;;;23.20;87.20;;;;;;5029518;28;20057;-68
2022/08/21 09:24:10;;;;;;;;;;;23.30;86.20;;;;;;5012738;28;20411;-67
2022/08/21 09:27:06;;;;;;;3.22;1.90;;;23.40;87.80;;;;;;5027592;28;19905;-67
2022/08/21 09:29:42;;;;;;;4.10;1.70;;;23.40;86.10;;;;;;5031564;28;20071;-67
2022/08/21 09:32:24;;;;;;;6.35;2.28;;;23.50;87.80;;;;;;5032743;28;20045;-67
2022/08/21 09:35:00;;;;;;;4.15;1.88;;;23.60;87.00;;;;;;5017351;28;20578;-68
2022/08/21 09:37:29;;;;;;;8.25;2.03;;;23.70;87.50;;;;;;5013477;28;20041;-67
2022/08/21 09:39:57;;;;;;;5.75;1.92;;;23.70;87.00;;;;;;5013021;28;20026;-68
2022/08/21 09:42:29;;;;;;;4.13;1.80;;;23.80;86.30;;;;;;5032422;28;20388;-67
2022/08/21 09:45:10;;;;;;;3.65;2.25;;;23.80;86.00;;;;;;5031921;28;20030;-67
2022/08/21 09:47:37;;;;;;;6.13;2.50;;;23.90;85.20;;;;;;5017160;28;20022;-67
2022/08/21 09:50:19;;;;;;;6.05;2.72;;;23.90;84.30;;;;;;5040661;28;20028;-67
2022/08/21 09:52:55;;;;;;;5.32;2.60;;;23.90;85.70;;;;;;5028042;28;20045;-67
2022/08/21 09:58:35;;;;;;;4.05;2.30;;;24.00;85.90;;;;;;5028462;28;20125;-67
2022/08/21 10:01:04;;;;;;;4.43;1.65;;;24.10;84.70;;;;;;5039994;28;20032;-67
2022/08/21 10:03:30;;;;;;;6.47;2.40;;;24.20;84.20;;;;;;5037513;28;20087;-67
2022/08/21 10:06:09;;;;;;;3.42;1.70;;;24.20;81.80;;;;;;5098579;27;20409;-66
2022/08/21 10:08:38;;;;;;;5.85;2.70;;;24.20;81.90;;;;;;5091940;28;20089;-67
2022/08/21 10:11:12;;;;;;;4.15;1.73;;;24.30;82.30;;;;;;5076316;28;20128;-67
2022/08/21 10:13:48;;;;;;;3.15;1.88;;;24.40;83.00;;;;;;5078800;28;20090;-67
2022/08/21 10:16:52;;;;;;;3.65;2.03;;;24.40;81.30;;;;;;5103978;28;20433;-66
2022/08/21 10:19:45;;;;;;;5.18;1.90;;;24.40;81.00;;;;;;5085410;28;20030;-68
2022/08/21 10:22:40;;;;;;;3.90;2.03;;;24.40;81.90;;;;;;5085912;28;20502;-66
2022/08/21 10:25:14;;;;;;;5.28;2.40;;;24.50;82.60;;;;;;5087735;28;20048;-67
2022/08/21 10:27:59;;;;;;;4.05;1.77;;;24.60;82.80;;;;;;5087895;28;20021;-67
2022/08/21 10:30:41;;;;;;;3.47;1.90;;;24.60;82.00;;;;;;5089081;28;20427;-66
2022/08/21 10:33:12;;;;;;;3.88;1.67;;;24.70;82.90;;;;;;5085809;28;20498;-67
2022/08/21 10:35:49;;;;;;;3.53;1.83;;;24.70;82.00;;;;;;5088741;28;20032;-67
2022/08/21 10:38:33;;;;;;;3.60;1.75;;;24.90;82.70;;;;;;5087515;28;20028;-66
2022/08/21 10:41:27;;;;;;;3.55;1.67;;;24.90;82.10;;;;;;5088040;28;20032;-66
2022/08/21 10:44:23;;;;;;;2.72;1.55;;;25.00;81.30;;;;;;5080743;28;20089;-66
2022/08/21 10:46:59;;;;;;;3.78;1.95;;;25.00;80.00;;;;;;5072222;28;20078;-66
2022/08/21 10:49:27;;;;;;;4.97;1.98;;;25.00;80.00;;;;;;5081507;28;20032;-66
2022/08/21 10:52:12;;;;;;;4.63;2.13;;;25.10;79.10;;;;;;5070519;28;20024;-66
2022/08/21 10:55:10;;;;;;;4.07;1.90;;;25.00;78.50;;;;;;5070044;28;20123;-66
2022/08/21 10:57:54;;;;;;;4.32;1.90;;;25.00;77.20;;;;;;5083871;28;20039;-66
2022/08/21 11:00:23;;;;;;;2.42;1.38;;;25.00;77.70;;;;;;5078472;28;20077;-66
2022/08/21 11:03:11;;;;;;;2.75;1.70;;;25.00;77.80;;;;;;5091977;28;20029;-67
2022/08/21 11:05:52;;;;;;;4.72;1.65;;;25.00;77.40;;;;;;5046726;28;20044;-66
2022/08/21 11:08:23;;;;;;;2.53;1.45;;;24.90;75.50;;;;;;5087077;28;20081;-67
2022/08/21 11:10:55;;;;;;;3.63;1.30;;;25.00;76.30;;;;;;5077262;28;20135;-67
2022/08/21 11:13:30;;;;;;;3.22;1.60;;;25.00;74.80;;;;;;5080324;28;20090;-67
2022/08/21 11:16:15;;;;;;;2.42;1.35;;;25.10;74.60;;;;;;5079726;28;20422;-67
2022/08/21 11:18:53;;;;;;;5.47;1.80;;;25.20;74.30;;;;;;5072624;28;20020;-67
2022/08/21 11:21:48;;;;;;;3.22;1.70;;;25.20;73.00;;;;;;5069921;28;20032;-67
2022/08/21 11:24:16;;;;;;;2.30;1.50;;;25.20;74.00;;;;;;5077219;28;20033;-66
2022/08/21 11:26:54;;;;;;;4.20;1.92;;;25.30;72.30;;;;;;5061788;28;20175;-66
2022/08/21 11:29:34;;;;;;;3.53;1.65;;;25.30;72.00;;;;;;5061990;28;20033;-66
2022/08/21 11:32:05;;;;;;;4.72;1.60;;;25.30;72.10;;;;;;5059079;28;20029;-66
2022/08/21 11:34:58;;;;;;;3.40;2.00;;;25.30;71.40;;;;;;5071362;28;20036;-67
2022/08/21 11:37:43;;;;;;;3.47;1.98;;;25.30;71.10;;;;;;5071036;28;20089;-67
2022/08/21 11:40:37;;;;;;;4.15;2.00;;;25.40;71.40;;;;;;5062284;28;20112;-67
2022/08/21 11:43:02;;;;;;;3.63;1.60;;;25.40;69.10;;;;;;5060945;28;20027;-67
2022/08/21 11:45:48;;;;;;;2.65;1.80;;;25.40;69.10;;;;;;5076483;28;20033;-68
2022/08/21 11:48:44;;;;;;;2.95;1.65;;;25.50;68.60;;;;;;5058760;28;20475;-67
2022/08/21 11:51:18;;;;;;;1.75;1.20;;;25.50;66.20;;;;;;5071777;28;20025;-67
2022/08/21 11:53:58;;;;;;;2.00;1.20;;;25.60;66.30;;;;;;5071939;28;20029;-67
2022/08/21 11:56:38;;;;;;;1.30;0.90;;;25.60;64.10;;;;;;5079262;28;20501;-67
2022/08/21 11:59:09;;;;;;;2.67;1.00;;;25.60;62.90;;;;;;5067284;28;20028;-67
2022/08/21 12:01:40;;;;;;;3.03;2.10;;;25.60;62.10;;;;;;5073456;28;20081;-67
2022/08/21 12:04:34;;;;;;;3.78;1.30;;;25.50;62.60;;;;;;5068536;28;20534;-66
2022/08/21 12:07:32;;;;;;;4.43;1.50;;;25.50;63.10;;;;;;5058543;28;20127;-67
2022/08/21 12:09:59;;;;;;;3.17;1.60;;;25.50;62.70;;;;;;5063314;28;20535;-67
2022/08/21 12:12:29;;;;;;;2.85;1.45;;;25.50;62.70;;;;;;5068442;28;20044;-67
2022/08/21 12:15:26;;;;;;;2.90;1.30;;;25.50;63.50;;;;;;5068863;28;20028;-68
2022/08/21 12:18:02;;;;;;;3.83;1.42;;;25.60;63.80;;;;;;5050781;28;20041;-67
2022/08/21 12:20:56;;;;;;;9.88;2.28;;;25.60;64.20;;;;;;5078392;28;20364;-67
2022/08/21 12:23:43;;;;;;;1.65;1.20;;;25.70;63.30;;;;;;5072319;28;20033;-67
2022/08/21 12:26:09;;;;;;;3.42;1.35;;;25.60;62.70;;;;;;5063942;28;20137;-66
2022/08/21 12:28:35;;;;;;;1.75;1.20;;;25.70;62.50;;;;;;5063504;28;20467;-67
2022/08/21 12:31:00;;;;;;;2.13;1.10;;;25.70;62.50;;;;;;5072838;28;20479;-67
2022/08/21 12:33:31;;;;;;;2.45;1.27;;;25.80;62.30;;;;;;5069644;28;20056;-67
2022/08/21 12:36:25;;;;;;;1.98;1.20;;;25.80;61.50;;;;;;5072916;28;20016;-67
2022/08/21 12:38:54;;;;;;;3.17;1.55;;;25.90;62.00;;;;;;5070017;28;20040;-67
2022/08/21 12:41:26;;;;;;;2.35;1.38;;;25.90;60.10;;;;;;5067948;28;20025;-67
2022/08/21 12:44:00;;;;;;;2.03;1.45;;;25.90;59.80;;;;;;5057502;28;20102;-67
2022/08/21 12:46:39;;;;;;;2.83;1.25;;;26.00;59.90;;;;;;5063343;28;20031;-67
2022/08/21 12:49:19;;;;;;;1.90;1.20;;;26.00;59.30;;;;;;5073141;28;20024;-67
2022/08/21 12:52:00;;;;;;;2.47;1.35;;;26.10;58.70;;;;;;5069460;28;20021;-67
2022/08/21 12:54:30;;;;;;;3.72;1.35;;;26.10;59.40;;;;;;5069911;28;20039;-67
2022/08/21 12:57:04;;;;;;;2.17;1.25;;;26.20;58.80;;;;;;5069802;28;20509;-67
2022/08/21 12:59:31;;;;;;;2.80;1.17;;;26.30;58.00;;;;;;5074152;28;20039;-67
2022/08/21 13:01:59;;;;;;;2.58;1.48;;;26.20;57.00;;;;;;5063004;28;20029;-67
2022/08/21 13:04:45;;;;;;;1.90;1.30;;;26.20;57.90;;;;;;5076273;28;20101;-66
2022/08/21 13:07:14;;;;;;;2.38;1.13;;;26.30;58.80;;;;;;5070357;28;20052;-67